Metar Flugplatz Niederstetten

ETHN 182320Z 26007KT 9999 FEW040CB OVC100 19/14 Q1014 BLU



Temperatur Niederstetten
19 Grad Celsius

QNH Niederstetten
1014
==============================================================

TAF Niederstetten:

TAF ETHN 291027Z 2911/3002 24010KT 9999 NSW FEW240 TEMPO 2911/2916 26012G22KT 9999 NSW SCT035 BKN240



Alle Angaben ohne Gewähr